Time;durP1;ratioP1;P1;durP2;ratioP2;P2;SDS_P1;SDS_P2;PMS_P1;PMS_P2;Temp;Humidity;BMP_temperature;BMP_pressure;BME280_temperature;BME280_humidity;BME280_pressure;Samples;Min_cycle;Max_cycle;Signal;HPM_P1;HPM_P2
2024/04/17 00:01:51;;;;;;;0.95;0.70;;;;;;;;;;5366880;26;20093;-65
2024/04/17 00:04:17;;;;;;;0.50;0.50;;;;;;;;;;5416105;26;20874;-65
2024/04/17 00:06:43;;;;;;;1.00;0.88;;;;;;;;;;5395089;26;20035;-65
2024/04/17 00:09:11;;;;;;;2.35;1.08;;;;;;;;;;5422438;26;20487;-65
2024/04/17 00:11:37;;;;;;;1.15;0.50;;;;;;;;;;5367939;26;20502;-65
2024/04/17 00:14:03;;;;;;;1.17;0.80;;;;;;;;;;5418182;26;20032;-65
2024/04/17 00:16:29;;;;;;;0.90;0.80;;;;;;;;;;5425178;26;20023;-65
2024/04/17 00:18:55;;;;;;;0.70;0.70;;;;;;;;;;5415773;26;20031;-66
2024/04/17 00:21:21;;;;;;;0.73;0.63;;;;;;;;;;5391252;26;20023;-67
2024/04/17 00:23:47;;;;;;;0.60;0.60;;;;;;;;;;5435377;26;20031;-66
2024/04/17 00:26:13;;;;;;;0.98;0.68;;;;;;;;;;5400230;26;20023;-65
2024/04/17 00:28:39;;;;;;;1.75;0.90;;;;;;;;;;5393880;26;20521;-65
2024/04/17 00:31:06;;;;;;;0.68;0.65;;;;;;;;;;5422221;26;20400;-65
2024/04/17 00:33:32;;;;;;;0.85;0.70;;;;;;;;;;5425942;26;20039;-66
2024/04/17 00:35:58;;;;;;;1.13;0.90;;;;;;;;;;5388409;26;20020;-65
2024/04/17 00:38:24;;;;;;;1.08;0.90;;;;;;;;;;5423015;26;20036;-66
2024/04/17 00:40:50;;;;;;;1.23;1.00;;;;;;;;;;5419463;26;20027;-66
2024/04/17 00:43:16;;;;;;;1.00;0.90;;;;;;;;;;5418754;26;20031;-66
2024/04/17 00:45:43;;;;;;;1.00;0.90;;;;;;;;;;5420879;26;20030;-66
2024/04/17 00:48:14;;;;;;;1.20;1.10;;;;;;;;;;5419744;26;20027;-66
2024/04/17 00:50:42;;;;;;;2.05;1.05;;;;;;;;;;5410511;26;20019;-66
2024/04/17 00:53:09;;;;;;;1.10;1.00;;;;;;;;;;5433457;26;20023;-66
2024/04/17 00:55:37;;;;;;;1.92;1.15;;;;;;;;;;5409757;26;20511;-66
2024/04/17 00:58:05;;;;;;;2.53;1.30;;;;;;;;;;5436738;26;20507;-66
2024/04/17 01:00:32;;;;;;;2.33;1.00;;;;;;;;;;5421480;26;20046;-66
2024/04/17 01:02:58;;;;;;;2.20;1.10;;;;;;;;;;5405691;26;20290;-69
2024/04/17 01:05:25;;;;;;;1.77;1.30;;;;;;;;;;5380465;26;20035;-67
2024/04/17 01:07:51;;;;;;;2.63;1.38;;;;;;;;;;5418744;26;20400;-66
2024/04/17 01:10:17;;;;;;;1.75;1.30;;;;;;;;;;5414000;26;20143;-67
2024/04/17 01:12:43;;;;;;;2.08;1.30;;;;;;;;;;5391888;26;20004;-68
2024/04/17 01:15:10;;;;;;;3.33;1.75;;;;;;;;;;5411456;26;20035;-68
2024/04/17 01:17:37;;;;;;;2.83;1.90;;;;;;;;;;5419638;26;20034;-67
2024/04/17 01:20:04;;;;;;;1.33;1.20;;;;;;;;;;5392798;26;20035;-66
2024/04/17 01:22:30;;;;;;;3.10;1.70;;;;;;;;;;5418611;26;20390;-68
2024/04/17 01:24:57;;;;;;;1.85;1.40;;;;;;;;;;5418027;26;20035;-67
2024/04/17 01:27:23;;;;;;;1.98;1.10;;;;;;;;;;5401229;26;20381;-66
2024/04/17 01:29:49;;;;;;;1.40;1.20;;;;;;;;;;5417251;26;20039;-66
2024/04/17 01:32:16;;;;;;;1.10;1.00;;;;;;;;;;5361086;26;20574;-67
2024/04/17 01:34:43;;;;;;;1.10;1.00;;;;;;;;;;5420091;26;20050;-66
2024/04/17 01:37:09;;;;;;;1.25;1.13;;;;;;;;;;5413565;26;20039;-66
2024/04/17 01:39:35;;;;;;;1.73;1.10;;;;;;;;;;5379577;26;20457;-65
2024/04/17 01:42:01;;;;;;;1.95;1.10;;;;;;;;;;5405078;26;20478;-66
2024/04/17 01:44:27;;;;;;;2.08;1.17;;;;;;;;;;5415280;26;20036;-68
2024/04/17 01:46:54;;;;;;;1.10;1.00;;;;;;;;;;5412736;26;20040;-66
2024/04/17 01:49:20;;;;;;;2.10;1.67;;;;;;;;;;5417700;26;20036;-66
2024/04/17 01:51:46;;;;;;;1.10;1.00;;;;;;;;;;5401160;26;20044;-66
2024/04/17 01:54:12;;;;;;;1.73;1.10;;;;;;;;;;5383342;26;20027;-65
2024/04/17 01:56:38;;;;;;;2.78;1.42;;;;;;;;;;5410592;26;20031;-68
2024/04/17 01:59:04;;;;;;;1.40;1.30;;;;;;;;;;5387048;26;20047;-65
2024/04/17 02:01:30;;;;;;;1.45;1.15;;;;;;;;;;5425559;26;20043;-65
2024/04/17 02:03:56;;;;;;;2.30;1.15;;;;;;;;;;5421021;26;20035;-66
2024/04/17 02:06:22;;;;;;;0.93;0.93;;;;;;;;;;5414305;26;20055;-68
2024/04/17 02:08:48;;;;;;;1.35;1.20;;;;;;;;;;5410695;26;20634;-66
2024/04/17 02:11:14;;;;;;;1.50;1.30;;;;;;;;;;5412134;26;20466;-66
2024/04/17 02:13:40;;;;;;;2.35;1.23;;;;;;;;;;5382925;26;20018;-64
2024/04/17 02:16:06;;;;;;;1.30;1.20;;;;;;;;;;5411381;26;20043;-66
2024/04/17 02:18:33;;;;;;;2.10;1.23;;;;;;;;;;5423410;26;20031;-66
2024/04/17 02:21:01;;;;;;;2.58;1.40;;;;;;;;;;5418331;26;20052;-66
2024/04/17 02:23:28;;;;;;;1.60;1.30;;;;;;;;;;5421945;26;20047;-65
2024/04/17 02:25:55;;;;;;;1.63;1.52;;;;;;;;;;5383027;26;20051;-65
2024/04/17 02:28:21;;;;;;;2.90;1.80;;;;;;;;;;5396078;26;20031;-66
2024/04/17 02:30:47;;;;;;;2.33;1.67;;;;;;;;;;5401969;26;20036;-66
2024/04/17 02:33:13;;;;;;;1.92;1.60;;;;;;;;;;5421353;26;20043;-67
2024/04/17 02:35:39;;;;;;;1.75;1.50;;;;;;;;;;5421278;26;20494;-66
2024/04/17 02:38:06;;;;;;;1.38;1.27;;;;;;;;;;5414464;26;20043;-67
2024/04/17 02:40:32;;;;;;;2.13;1.50;;;;;;;;;;5422499;26;20039;-67
2024/04/17 02:42:59;;;;;;;2.20;1.30;;;;;;;;;;5410219;26;20031;-69
2024/04/17 02:45:25;;;;;;;1.50;1.38;;;;;;;;;;5411764;26;20035;-67
2024/04/17 02:47:52;;;;;;;2.10;1.17;;;;;;;;;;5381414;26;20031;-67
2024/04/17 02:50:18;;;;;;;1.42;1.30;;;;;;;;;;5418285;26;20040;-67
2024/04/17 02:52:44;;;;;;;1.88;1.45;;;;;;;;;;5408152;26;20047;-68
2024/04/17 02:55:10;;;;;;;1.20;1.10;;;;;;;;;;5412625;26;20036;-66
2024/04/17 02:57:36;;;;;;;2.10;1.58;;;;;;;;;;5384989;26;20039;-66
2024/04/17 03:00:03;;;;;;;2.92;1.90;;;;;;;;;;5422728;26;20384;-66
2024/04/17 03:02:31;;;;;;;2.25;1.30;;;;;;;;;;5422205;26;20115;-66
2024/04/17 03:04:57;;;;;;;1.60;1.27;;;;;;;;;;5417838;26;20032;-66
2024/04/17 03:07:23;;;;;;;1.95;1.65;;;;;;;;;;5425887;26;20388;-66
2024/04/17 03:09:52;;;;;;;2.80;1.60;;;;;;;;;;5372798;26;20062;-67
2024/04/17 03:12:18;;;;;;;1.77;1.37;;;;;;;;;;5386161;26;20478;-67
2024/04/17 03:14:44;;;;;;;2.88;1.52;;;;;;;;;;5418407;26;20495;-67
2024/04/17 03:17:10;;;;;;;1.90;1.40;;;;;;;;;;5419903;26;20034;-66
2024/04/17 03:19:36;;;;;;;1.50;1.20;;;;;;;;;;5416983;26;20027;-67
2024/04/17 03:22:03;;;;;;;1.30;1.13;;;;;;;;;;5420629;26;20024;-66
2024/04/17 03:24:29;;;;;;;2.45;1.60;;;;;;;;;;5413899;26;20039;-66
2024/04/17 03:26:55;;;;;;;2.50;1.40;;;;;;;;;;5423063;26;20027;-66
2024/04/17 03:29:21;;;;;;;3.80;1.80;;;;;;;;;;5420227;26;20047;-66
2024/04/17 03:31:47;;;;;;;1.15;1.05;;;;;;;;;;5416099;26;20501;-66
2024/04/17 03:34:13;;;;;;;1.88;0.98;;;;;;;;;;5419866;26;20044;-66
2024/04/17 03:36:40;;;;;;;1.10;1.00;;;;;;;;;;5416456;26;20035;-67
2024/04/17 03:39:06;;;;;;;1.55;1.30;;;;;;;;;;5386555;26;20541;-66
2024/04/17 03:41:32;;;;;;;2.05;0.98;;;;;;;;;;5414020;26;20042;-66
2024/04/17 03:43:58;;;;;;;0.88;0.80;;;;;;;;;;5414288;26;20044;-66
2024/04/17 03:46:24;;;;;;;1.00;1.00;;;;;;;;;;5412800;26;20032;-66
2024/04/17 03:48:50;;;;;;;1.80;0.90;;;;;;;;;;5415321;26;20028;-68
2024/04/17 03:51:16;;;;;;;1.13;0.90;;;;;;;;;;5415384;26;20074;-66
2024/04/17 03:53:42;;;;;;;1.50;1.20;;;;;;;;;;5411375;26;20396;-66
2024/04/17 03:56:08;;;;;;;1.98;0.95;;;;;;;;;;5410782;26;20027;-67
2024/04/17 03:58:34;;;;;;;0.98;0.90;;;;;;;;;;5398120;26;20028;-65
2024/04/17 04:01:00;;;;;;;1.10;1.00;;;;;;;;;;5405511;26;20031;-67
2024/04/17 04:03:26;;;;;;;1.20;0.80;;;;;;;;;;5374101;26;20498;-67
2024/04/17 04:05:52;;;;;;;1.10;1.00;;;;;;;;;;5403853;26;20027;-66
2024/04/17 04:08:18;;;;;;;0.90;0.90;;;;;;;;;;5404132;26;20043;-67
2024/04/17 04:10:44;;;;;;;1.60;0.70;;;;;;;;;;5409823;26;20043;-67
2024/04/17 04:13:11;;;;;;;0.80;0.80;;;;;;;;;;5414197;26;20375;-67
2024/04/17 04:15:37;;;;;;;0.73;0.73;;;;;;;;;;5380956;26;20081;-66
2024/04/17 04:18:03;;;;;;;0.98;0.88;;;;;;;;;;5403762;26;20027;-67
2024/04/17 04:20:29;;;;;;;1.50;1.10;;;;;;;;;;5374105;26;20380;-66
2024/04/17 04:22:55;;;;;;;2.13;1.52;;;;;;;;;;5397070;26;20029;-66
2024/04/17 04:25:21;;;;;;;1.58;0.90;;;;;;;;;;5367999;26;20013;-66
2024/04/17 04:27:47;;;;;;;0.80;0.80;;;;;;;;;;5412269;26;20020;-66
2024/04/17 04:30:13;;;;;;;0.73;0.70;;;;;;;;;;5413939;26;20034;-67
2024/04/17 04:32:39;;;;;;;0.60;0.60;;;;;;;;;;5400115;26;20413;-67
2024/04/17 04:35:06;;;;;;;0.98;0.80;;;;;;;;;;5411412;26;20217;-66
2024/04/17 04:37:32;;;;;;;3.90;0.93;;;;;;;;;;5405683;26;20036;-66
2024/04/17 04:39:58;;;;;;;0.93;0.55;;;;;;;;;;5418205;26;20596;-66
2024/04/17 04:42:24;;;;;;;1.15;0.70;;;;;;;;;;5410664;26;20027;-66
2024/04/17 04:44:50;;;;;;;0.50;0.40;;;;;;;;;;5412799;26;20031;-65
2024/04/17 04:47:16;;;;;;;0.77;0.65;;;;;;;;;;5426180;26;20030;-68
2024/04/17 04:49:44;;;;;;;0.50;0.50;;;;;;;;;;5354804;26;20043;-66
2024/04/17 04:52:10;;;;;;;0.70;0.63;;;;;;;;;;5409290;26;20027;-65
2024/04/17 04:54:37;;;;;;;3.72;1.10;;;;;;;;;;5407627;26;20055;-66
2024/04/17 04:57:03;;;;;;;2.25;1.23;;;;;;;;;;5417018;26;20036;-66
2024/04/17 04:59:30;;;;;;;7.15;3.17;;;;;;;;;;5412786;26;20036;-65
2024/04/17 05:01:56;;;;;;;2.38;1.92;;;;;;;;;;5389249;26;20039;-67
2024/04/17 05:04:22;;;;;;;2.70;1.55;;;;;;;;;;5421178;26;20024;-66
2024/04/17 05:06:49;;;;;;;2.50;1.70;;;;;;;;;;5422488;26;20027;-66
2024/04/17 05:09:15;;;;;;;2.58;1.63;;;;;;;;;;5417221;26;20036;-67
2024/04/17 05:11:41;;;;;;;2.47;1.60;;;;;;;;;;5413582;26;20031;-67
2024/04/17 05:14:07;;;;;;;4.03;1.90;;;;;;;;;;5411952;26;20477;-66
2024/04/17 05:16:33;;;;;;;2.47;1.98;;;;;;;;;;5376921;26;20365;-66
2024/04/17 05:18:59;;;;;;;1.17;1.00;;;;;;;;;;5409997;26;20035;-66
2024/04/17 05:21:25;;;;;;;1.10;0.90;;;;;;;;;;5408330;26;20358;-67
2024/04/17 05:23:51;;;;;;;1.55;1.10;;;;;;;;;;5416446;26;20042;-66
2024/04/17 05:26:17;;;;;;;3.92;1.27;;;;;;;;;;5418555;26;20031;-66
2024/04/17 05:28:43;;;;;;;1.10;0.98;;;;;;;;;;5423613;26;20047;-67
2024/04/17 05:31:10;;;;;;;0.80;0.80;;;;;;;;;;5415033;26;20035;-67
2024/04/17 05:33:36;;;;;;;1.55;1.10;;;;;;;;;;5415081;26;20046;-66
2024/04/17 05:36:02;;;;;;;1.25;1.00;;;;;;;;;;5410817;26;20032;-66
2024/04/17 05:38:28;;;;;;;1.40;1.30;;;;;;;;;;5384939;26;20039;-66
2024/04/17 05:40:54;;;;;;;1.90;1.30;;;;;;;;;;5412762;26;20510;-65
2024/04/17 05:43:20;;;;;;;2.25;1.80;;;;;;;;;;5407860;26;20035;-66
2024/04/17 05:45:46;;;;;;;2.95;1.50;;;;;;;;;;5424019;26;20512;-65
2024/04/17 05:48:13;;;;;;;2.83;1.30;;;;;;;;;;5385949;26;20031;-64
2024/04/17 05:50:41;;;;;;;2.92;1.20;;;;;;;;;;5414778;26;20031;-67
2024/04/17 05:53:07;;;;;;;3.92;2.25;;;;;;;;;;5409929;26;20031;-66
2024/04/17 05:55:34;;;;;;;2.78;1.95;;;;;;;;;;5418144;26;20103;-66
2024/04/17 05:58:01;;;;;;;3.33;1.70;;;;;;;;;;5409523;26;20499;-64
2024/04/17 06:00:27;;;;;;;3.60;1.70;;;;;;;;;;5425628;26;20013;-65
2024/04/17 06:02:53;;;;;;;2.15;1.38;;;;;;;;;;5417753;26;20040;-66
2024/04/17 06:05:19;;;;;;;1.95;1.30;;;;;;;;;;5392246;26;20009;-66
2024/04/17 06:07:45;;;;;;;2.15;1.60;;;;;;;;;;5416141;26;20027;-66
2024/04/17 06:10:11;;;;;;;2.15;1.40;;;;;;;;;;5413331;26;20031;-66
2024/04/17 06:12:37;;;;;;;4.22;1.92;;;;;;;;;;5412508;26;20031;-65
2024/04/17 06:15:04;;;;;;;3.67;2.13;;;;;;;;;;5410263;26;20036;-66
2024/04/17 06:17:31;;;;;;;2.60;1.73;;;;;;;;;;5411684;26;20043;-66
2024/04/17 06:19:57;;;;;;;2.85;1.40;;;;;;;;;;5417127;26;20036;-66
2024/04/17 06:22:23;;;;;;;2.67;1.20;;;;;;;;;;5391520;26;20043;-65
2024/04/17 06:24:50;;;;;;;1.52;1.25;;;;;;;;;;5409576;26;20040;-65
2024/04/17 06:27:16;;;;;;;1.23;0.77;;;;;;;;;;5412447;26;20038;-65
2024/04/17 06:29:43;;;;;;;0.95;0.70;;;;;;;;;;5416032;26;20026;-65
2024/04/17 06:32:09;;;;;;;1.50;0.82;;;;;;;;;;5415579;26;20516;-65
2024/04/17 06:34:36;;;;;;;1.00;0.80;;;;;;;;;;5420890;26;20023;-64
2024/04/17 06:37:02;;;;;;;0.90;0.57;;;;;;;;;;5415869;26;20044;-65
2024/04/17 06:39:28;;;;;;;1.05;0.70;;;;;;;;;;5382975;26;20014;-65
2024/04/17 06:41:57;;;;;;;0.95;0.65;;;;;;;;;;5414830;26;20410;-65
2024/04/17 06:44:23;;;;;;;0.40;0.40;;;;;;;;;;5410425;26;20121;-65
2024/04/17 06:46:49;;;;;;;0.50;0.40;;;;;;;;;;5415780;26;20039;-64
2024/04/17 06:49:16;;;;;;;0.40;0.40;;;;;;;;;;5416328;26;20044;-65
2024/04/17 06:51:42;;;;;;;0.50;0.50;;;;;;;;;;5416686;26;20036;-66
2024/04/17 06:54:08;;;;;;;0.50;0.40;;;;;;;;;;5389782;26;19999;-65
2024/04/17 06:56:34;;;;;;;0.70;0.60;;;;;;;;;;5426560;26;20039;-65
2024/04/17 06:59:00;;;;;;;0.50;0.43;;;;;;;;;;5392792;26;20059;-66
2024/04/17 07:01:28;;;;;;;0.50;0.50;;;;;;;;;;5418796;26;20051;-66
2024/04/17 07:03:55;;;;;;;0.40;0.40;;;;;;;;;;5420610;26;20035;-66
2024/04/17 07:06:22;;;;;;;0.60;0.50;;;;;;;;;;5421981;26;20039;-66
2024/04/17 07:08:48;;;;;;;0.75;0.60;;;;;;;;;;5416388;26;20031;-67
2024/04/17 07:11:14;;;;;;;0.73;0.68;;;;;;;;;;5418289;26;20035;-66
2024/04/17 07:13:40;;;;;;;1.50;0.95;;;;;;;;;;5347410;26;20032;-66
2024/04/17 07:16:07;;;;;;;3.53;1.63;;;;;;;;;;5414378;26;20035;-66
2024/04/17 07:18:35;;;;;;;2.78;1.83;;;;;;;;;;5417794;26;20030;-66
2024/04/17 07:21:01;;;;;;;2.45;1.60;;;;;;;;;;5411736;26;20371;-67
2024/04/17 07:23:28;;;;;;;2.22;1.58;;;;;;;;;;5423503;26;20023;-66
2024/04/17 07:25:55;;;;;;;3.25;1.65;;;;;;;;;;5411246;26;20036;-66
2024/04/17 07:28:21;;;;;;;1.90;1.55;;;;;;;;;;5391346;26;20048;-65
2024/04/17 07:30:47;;;;;;;2.13;1.50;;;;;;;;;;5418670;26;20040;-66
2024/04/17 07:33:13;;;;;;;3.17;1.85;;;;;;;;;;5414016;26;20043;-65
2024/04/17 07:35:39;;;;;;;2.95;1.90;;;;;;;;;;5383671;26;20025;-66
2024/04/17 07:38:06;;;;;;;1.83;1.60;;;;;;;;;;5414042;26;20383;-68
2024/04/17 07:40:32;;;;;;;2.45;1.77;;;;;;;;;;5412558;26;20027;-66
2024/04/17 07:43:01;;;;;;;2.50;2.00;;;;;;;;;;5411500;26;20031;-67
2024/04/17 07:45:27;;;;;;;2.50;1.95;;;;;;;;;;5420470;26;20039;-65
2024/04/17 07:47:53;;;;;;;2.83;1.55;;;;;;;;;;5388742;26;20390;-66
2024/04/17 07:50:19;;;;;;;1.30;1.00;;;;;;;;;;5416422;26;20491;-66
2024/04/17 07:52:46;;;;;;;1.10;0.95;;;;;;;;;;5415380;26;20039;-65
2024/04/17 07:55:12;;;;;;;2.88;1.77;;;;;;;;;;5417218;26;20035;-67
2024/04/17 07:57:38;;;;;;;3.05;1.88;;;;;;;;;;5423324;26;20035;-67
2024/04/17 08:00:05;;;;;;;2.45;1.70;;;;;;;;;;5418356;26;20031;-66
2024/04/17 08:02:39;;;;;;;1.70;1.40;;;;;;;;;;5413041;26;20030;-68
2024/04/17 08:05:05;;;;;;;4.63;2.80;;;;;;;;;;5412639;26;20035;-65
2024/04/17 08:07:31;;;;;;;3.50;2.50;;;;;;;;;;5415580;26;20036;-67
2024/04/17 08:09:58;;;;;;;2.85;1.92;;;;;;;;;;5413411;26;20043;-66
2024/04/17 08:12:24;;;;;;;2.67;1.80;;;;;;;;;;5416923;26;20032;-67
2024/04/17 08:14:51;;;;;;;2.63;1.70;;;;;;;;;;5384952;26;20017;-66
2024/04/17 08:17:17;;;;;;;1.90;1.38;;;;;;;;;;5410807;26;20047;-66
2024/04/17 08:19:43;;;;;;;1.77;1.50;;;;;;;;;;5417525;26;20026;-67
2024/04/17 08:22:09;;;;;;;1.70;1.25;;;;;;;;;;5378967;26;20043;-66
2024/04/17 08:24:35;;;;;;;1.80;1.20;;;;;;;;;;5377061;26;20014;-67
2024/04/17 08:27:01;;;;;;;1.92;1.20;;;;;;;;;;5412987;26;20031;-66
2024/04/17 08:29:27;;;;;;;1.52;1.05;;;;;;;;;;5384409;26;20031;-66
2024/04/17 08:31:53;;;;;;;1.98;1.30;;;;;;;;;;5413601;26;20028;-66
2024/04/17 08:34:19;;;;;;;2.25;1.52;;;;;;;;;;5408061;26;20055;-65
2024/04/17 08:36:46;;;;;;;1.92;1.33;;;;;;;;;;5409965;26;20050;-66
2024/04/17 08:39:12;;;;;;;3.30;1.35;;;;;;;;;;5401659;26;20044;-66
2024/04/17 08:41:47;;;;;;;1.88;1.30;;;;;;;;;;5409577;26;20035;-66
2024/04/17 08:44:17;;;;;;;2.10;1.38;;;;;;;;;;5379887;26;20040;-65
2024/04/17 08:46:45;;;;;;;;;;;;;;;;;;5415702;26;20032;-66
2024/04/17 08:49:12;;;;;;;2.85;1.58;;;;;;;;;;5415785;26;19949;-65
2024/04/17 08:51:41;;;;;;;3.25;1.92;;;;;;;;;;5416347;26;20083;-65
2024/04/17 08:54:07;;;;;;;3.95;1.73;;;;;;;;;;5409236;26;20035;-64
2024/04/17 08:56:34;;;;;;;2.78;1.63;;;;;;;;;;5416177;26;20043;-65
2024/04/17 08:59:00;;;;;;;2.50;1.60;;;;;;;;;;5418967;26;20048;-66
2024/04/17 09:01:32;;;;;;;3.33;1.80;;;;;;;;;;5374996;26;20035;-65
2024/04/17 09:04:00;;;;;;;3.47;1.90;;;;;;;;;;5420679;26;20614;-65
2024/04/17 09:06:27;;;;;;;4.93;2.10;;;;;;;;;;5425697;26;20375;-64
2024/04/17 09:08:56;;;;;;;2.05;1.30;;;;;;;;;;5424647;26;20028;-65
2024/04/17 09:11:22;;;;;;;1.60;1.20;;;;;;;;;;5412619;26;20023;-66
2024/04/17 09:13:48;;;;;;;1.75;1.25;;;;;;;;;;5408829;26;20027;-66
2024/04/17 09:16:14;;;;;;;2.10;1.10;;;;;;;;;;5413501;26;20035;-66
2024/04/17 09:18:40;;;;;;;1.35;1.10;;;;;;;;;;5413005;26;20043;-65
2024/04/17 09:21:09;;;;;;;2.28;1.38;;;;;;;;;;5412035;26;20031;-65
2024/04/17 09:23:35;;;;;;;1.60;1.20;;;;;;;;;;5414818;26;20031;-65
2024/04/17 09:26:18;;;;;;;1.70;1.17;;;;;;;;;;5384830;26;20807;-65
2024/04/17 09:28:45;;;;;;;2.42;1.08;;;;;;;;;;5386660;26;20391;-65
2024/04/17 09:31:12;;;;;;;1.50;0.93;;;;;;;;;;5416064;26;20031;-65
2024/04/17 09:33:44;;;;;;;1.58;1.00;;;;;;;;;;5412443;26;20043;-65
2024/04/17 09:36:11;;;;;;;1.80;1.20;;;;;;;;;;5382037;26;20040;-65
2024/04/17 09:38:37;;;;;;;1.30;0.93;;;;;;;;;;5413811;26;20035;-65
2024/04/17 09:41:03;;;;;;;1.65;1.30;;;;;;;;;;5380097;26;20502;-64
2024/04/17 09:43:29;;;;;;;1.83;1.40;;;;;;;;;;5417825;26;20040;-64
2024/04/17 09:46:06;;;;;;;1.85;1.30;;;;;;;;;;5403762;26;20039;-65
2024/04/17 09:48:36;;;;;;;1.83;1.25;;;;;;;;;;5420777;26;20027;-66
2024/04/17 09:51:04;;;;;;;3.88;1.40;;;;;;;;;;5413438;26;20028;-65
2024/04/17 09:53:32;;;;;;;3.22;1.83;;;;;;;;;;5414614;26;20042;-65
2024/04/17 09:55:58;;;;;;;1.65;1.30;;;;;;;;;;5405341;26;20094;-65
2024/04/17 09:58:32;;;;;;;2.03;1.40;;;;;;;;;;5414512;26;20035;-64
2024/04/17 10:01:02;;;;;;;3.83;1.30;;;;;;;;;;5377846;26;20027;-65
2024/04/17 10:03:31;;;;;;;2.03;1.33;;;;;;;;;;5406870;26;20036;-64
2024/04/17 10:06:00;;;;;;;5.03;1.90;;;;;;;;;;5407011;26;20578;-65
2024/04/17 10:08:28;;;;;;;;;;;;;;;;;;5382269;26;20272;-66
2024/04/17 10:10:55;;;;;;;3.22;2.25;;;;;;;;;;5416731;26;19955;-66
2024/04/17 10:13:22;;;;;;;5.60;2.67;;;;;;;;;;5418510;26;20660;-66
2024/04/17 10:15:49;;;;;;;4.70;2.88;;;;;;;;;;5416432;26;20035;-67
2024/04/17 10:18:16;;;;;;;5.22;3.00;;;;;;;;;;5416342;26;20917;-66
2024/04/17 10:20:42;;;;;;;5.72;3.50;;;;;;;;;;5415277;26;20027;-67
2024/04/17 10:23:09;;;;;;;7.13;3.42;;;;;;;;;;5411408;26;20039;-67
2024/04/17 10:25:54;;;;;;;5.13;3.03;;;;;;;;;;5415079;26;20043;-66
2024/04/17 10:28:21;;;;;;;4.43;2.72;;;;;;;;;;5415791;26;20024;-67
2024/04/17 10:30:49;;;;;;;5.15;3.35;;;;;;;;;;5414190;26;20031;-67
2024/04/17 10:33:18;;;;;;;4.60;3.03;;;;;;;;;;5415657;26;20027;-67
2024/04/17 10:35:51;;;;;;;4.50;2.83;;;;;;;;;;5412352;26;20027;-67
2024/04/17 10:38:17;;;;;;;4.80;3.33;;;;;;;;;;5413977;26;20019;-66
2024/04/17 10:40:45;;;;;;;4.35;2.72;;;;;;;;;;5415068;26;20035;-67
2024/04/17 10:43:12;;;;;;;4.03;2.65;;;;;;;;;;5412888;26;20494;-66
2024/04/17 10:46:09;;;;;;;3.83;2.60;;;;;;;;;;5387751;26;20027;-67
2024/04/17 10:48:46;;;;;;;4.55;3.58;;;;;;;;;;5413478;26;20494;-67
2024/04/17 10:51:14;;;;;;;6.50;3.90;;;;;;;;;;5383774;26;20027;-67
2024/04/17 10:53:47;;;;;;;5.40;3.20;;;;;;;;;;5415373;26;20023;-67
2024/04/17 10:56:17;;;;;;;5.47;3.50;;;;;;;;;;5422945;26;20642;-66
2024/04/17 10:58:43;;;;;;;;;;;;;;;;;;5421688;26;20031;-67
2024/04/17 11:01:12;;;;;;;6.30;3.67;;;;;;;;;;5437467;26;19956;-65
2024/04/17 11:03:38;;;;;;;5.28;3.83;;;;;;;;;;5423428;26;20026;-67
2024/04/17 11:06:08;;;;;;;9.80;4.47;;;;;;;;;;5429081;26;20026;-67
2024/04/17 11:08:41;;;;;;;7.63;4.55;;;;;;;;;;5419136;26;20034;-68
2024/04/17 11:11:10;;;;;;;6.93;4.10;;;;;;;;;;5412636;26;20478;-67
2024/04/17 11:13:46;;;;;;;8.68;4.88;;;;;;;;;;5418069;26;20118;-66
2024/04/17 11:16:13;;;;;;;7.25;4.55;;;;;;;;;;5390922;26;20506;-67
2024/04/17 11:18:41;;;;;;;7.28;4.45;;;;;;;;;;5411906;26;20490;-66
2024/04/17 11:21:09;;;;;;;7.85;4.18;;;;;;;;;;5411926;26;20038;-66
2024/04/17 11:23:39;;;;;;;8.80;5.15;;;;;;;;;;5395920;26;20503;-67
2024/04/17 11:26:05;;;;;;;6.78;4.70;;;;;;;;;;5415285;26;20027;-66
2024/04/17 11:28:31;;;;;;;8.35;4.85;;;;;;;;;;5437387;26;20032;-65
2024/04/17 11:30:58;;;;;;;10.20;5.00;;;;;;;;;;5412726;26;20032;-66
2024/04/17 11:33:26;;;;;;;8.50;4.82;;;;;;;;;;5415344;26;20059;-65
2024/04/17 11:36:11;;;;;;;8.35;5.13;;;;;;;;;;5411787;26;22351;-65
2024/04/17 11:38:37;;;;;;;10.82;5.28;;;;;;;;;;5418142;26;20388;-65
2024/04/17 11:41:04;;;;;;;9.60;4.43;;;;;;;;;;5409418;26;20035;-65
2024/04/17 11:43:30;;;;;;;9.82;4.57;;;;;;;;;;5418336;26;20393;-65
2024/04/17 11:45:56;;;;;;;9.68;5.25;;;;;;;;;;5416238;26;20031;-65
2024/04/17 11:48:22;;;;;;;9.43;5.20;;;;;;;;;;5389674;26;20032;-65
2024/04/17 11:50:48;;;;;;;9.00;5.10;;;;;;;;;;5414259;26;20038;-65
2024/04/17 11:53:15;;;;;;;8.63;5.32;;;;;;;;;;5413662;26;20043;-64
2024/04/17 11:55:41;;;;;;;9.68;5.30;;;;;;;;;;5422005;26;20034;-65
2024/04/17 11:58:07;;;;;;;6.90;4.85;;;;;;;;;;5384015;26;20035;-65
2024/04/17 12:00:33;;;;;;;11.20;5.60;;;;;;;;;;5414004;26;20028;-65
2024/04/17 12:02:59;;;;;;;11.32;5.80;;;;;;;;;;5438253;26;20028;-65
2024/04/17 12:05:26;;;;;;;9.65;5.68;;;;;;;;;;5424528;26;20651;-65
2024/04/17 12:07:52;;;;;;;10.73;5.85;;;;;;;;;;5426834;26;20054;-64
2024/04/17 12:10:19;;;;;;;10.27;5.80;;;;;;;;;;5415908;26;20031;-65
2024/04/17 12:12:46;;;;;;;9.80;6.18;;;;;;;;;;5415827;26;20032;-64
2024/04/17 12:15:12;;;;;;;12.40;6.15;;;;;;;;;;5392117;26;20048;-65
2024/04/17 12:17:38;;;;;;;10.52;6.60;;;;;;;;;;5410514;26;20059;-64
2024/04/17 12:20:04;;;;;;;10.27;6.35;;;;;;;;;;5420548;26;20055;-66
2024/04/17 12:22:31;;;;;;;9.05;5.80;;;;;;;;;;5423360;26;20036;-64
2024/04/17 12:27:41;;;;;;;11.82;7.40;;;;;;;;;;5410897;26;20474;-65
2024/04/17 12:30:08;;;;;;;15.35;8.38;;;;;;;;;;5413966;26;20039;-64
2024/04/17 12:32:34;;;;;;;12.77;7.45;;;;;;;;;;5384272;26;20040;-66
2024/04/17 12:35:02;;;;;;;12.20;7.00;;;;;;;;;;5408824;26;20759;-65
2024/04/17 12:37:28;;;;;;;13.27;7.35;;;;;;;;;;5412750;26;20040;-66
2024/04/17 12:39:54;;;;;;;11.07;7.45;;;;;;;;;;5417807;26;20506;-65
2024/04/17 12:42:22;;;;;;;16.02;7.93;;;;;;;;;;5410523;26;20416;-66
2024/04/17 12:44:48;;;;;;;14.30;7.38;;;;;;;;;;5411489;26;20507;-66
2024/04/17 12:47:15;;;;;;;9.60;6.65;;;;;;;;;;5415179;26;20047;-65
2024/04/17 12:49:41;;;;;;;9.63;6.85;;;;;;;;;;5419224;26;20031;-66
2024/04/17 12:52:07;;;;;;;17.15;7.18;;;;;;;;;;5416653;26;20043;-66
2024/04/17 12:54:33;;;;;;;14.57;7.03;;;;;;;;;;5425909;26;20043;-65
2024/04/17 12:56:59;;;;;;;14.48;7.38;;;;;;;;;;5418924;26;20044;-65
2024/04/17 12:59:25;;;;;;;11.00;6.47;;;;;;;;;;5394767;26;20051;-66
2024/04/17 13:01:52;;;;;;;10.68;6.63;;;;;;;;;;5413335;26;20507;-66
2024/04/17 13:04:18;;;;;;;13.50;7.00;;;;;;;;;;5422254;26;20047;-66
2024/04/17 13:06:44;;;;;;;11.77;6.50;;;;;;;;;;5426748;26;20030;-66
2024/04/17 13:09:12;;;;;;;16.33;8.02;;;;;;;;;;5414179;26;20032;-67
2024/04/17 13:11:39;;;;;;;9.75;6.57;;;;;;;;;;5412812;26;20397;-66
2024/04/17 13:14:05;;;;;;;12.15;5.50;;;;;;;;;;5416423;26;20390;-66
2024/04/17 13:16:31;;;;;;;11.68;5.60;;;;;;;;;;5421942;26;20051;-65
2024/04/17 13:18:57;;;;;;;12.52;6.38;;;;;;;;;;5416557;26;20035;-66
2024/04/17 13:21:24;;;;;;;11.85;5.60;;;;;;;;;;5421291;26;20526;-66
2024/04/17 13:23:50;;;;;;;11.93;4.90;;;;;;;;;;5418170;26;20503;-65
2024/04/17 13:26:16;;;;;;;7.22;4.22;;;;;;;;;;5411217;26;20000;-63
2024/04/17 13:28:42;;;;;;;8.00;4.45;;;;;;;;;;5383420;26;20031;-64
2024/04/17 13:31:09;;;;;;;8.30;4.45;;;;;;;;;;5412222;26;20357;-66
2024/04/17 13:33:36;;;;;;;10.05;4.30;;;;;;;;;;5404372;26;20491;-68
2024/04/17 13:36:04;;;;;;;6.97;3.92;;;;;;;;;;5406159;26;20031;-66
2024/04/17 13:38:30;;;;;;;8.23;4.72;;;;;;;;;;5408908;26;20036;-66
2024/04/17 13:41:01;;;;;;;7.40;4.93;;;;;;;;;;5403581;26;20013;-65
2024/04/17 13:43:28;;;;;;;7.65;3.42;;;;;;;;;;5406184;26;20040;-64
2024/04/17 13:45:55;;;;;;;5.38;3.47;;;;;;;;;;5408253;26;20031;-67
2024/04/17 13:48:21;;;;;;;7.03;3.40;;;;;;;;;;5407402;26;20039;-64
2024/04/17 13:50:57;;;;;;;7.93;5.20;;;;;;;;;;5401909;26;20004;-66
2024/04/17 13:53:23;;;;;;;10.38;4.70;;;;;;;;;;5413059;26;20502;-64
2024/04/17 13:55:49;;;;;;;7.90;4.40;;;;;;;;;;5407285;26;20007;-67
2024/04/17 13:58:19;;;;;;;9.10;3.70;;;;;;;;;;5410258;26;20378;-65
2024/04/17 14:00:45;;;;;;;9.43;4.82;;;;;;;;;;5415795;26;20058;-64
2024/04/17 14:03:11;;;;;;;12.13;3.67;;;;;;;;;;5397796;26;20000;-64
2024/04/17 14:05:38;;;;;;;6.82;3.80;;;;;;;;;;5412166;26;20047;-65
2024/04/17 14:08:05;;;;;;;5.68;3.10;;;;;;;;;;5410127;26;20020;-64
2024/04/17 14:10:32;;;;;;;7.90;3.83;;;;;;;;;;5428637;26;20044;-64
2024/04/17 14:12:58;;;;;;;5.63;3.28;;;;;;;;;;5408764;26;20059;-64
2024/04/17 14:15:25;;;;;;;4.82;2.97;;;;;;;;;;5382775;26;20014;-64
2024/04/17 14:17:53;;;;;;;8.57;3.70;;;;;;;;;;5417177;26;20027;-64
2024/04/17 14:20:19;;;;;;;4.95;3.13;;;;;;;;;;5416227;26;20032;-63
2024/04/17 14:22:45;;;;;;;7.22;3.67;;;;;;;;;;5414477;26;20420;-64
2024/04/17 14:25:15;;;;;;;7.72;3.38;;;;;;;;;;5415925;26;20024;-64
2024/04/17 14:27:41;;;;;;;5.28;3.20;;;;;;;;;;5411463;26;20027;-63
2024/04/17 14:30:07;;;;;;;5.55;3.60;;;;;;;;;;5416619;26;20491;-63
2024/04/17 14:32:34;;;;;;;7.93;3.50;;;;;;;;;;5422416;26;20490;-63
2024/04/17 14:35:00;;;;;;;7.22;3.35;;;;;;;;;;5419284;26;20043;-63
2024/04/17 14:37:26;;;;;;;7.70;3.15;;;;;;;;;;5423048;26;20487;-64
2024/04/17 14:39:52;;;;;;;5.75;2.85;;;;;;;;;;5420421;26;20030;-64
2024/04/17 14:42:18;;;;;;;8.95;3.33;;;;;;;;;;5389978;26;20488;-64
2024/04/17 14:44:45;;;;;;;7.68;3.40;;;;;;;;;;5420721;26;20498;-64